createdAt,value
2023-10-29T00:02:21.677Z,4.50
2023-10-29T00:05:25.044Z,4.15
2023-10-29T00:08:27.397Z,3.87
2023-10-29T00:11:30.268Z,4.72
2023-10-29T00:14:33.249Z,4.05
2023-10-29T00:17:35.840Z,4.55
2023-10-29T00:20:38.372Z,4.50
2023-10-29T00:23:40.999Z,4.43
2023-10-29T00:26:43.465Z,4.55
2023-10-29T00:29:48.067Z,4.40
2023-10-29T00:32:50.438Z,4.40
2023-10-29T00:35:55.115Z,4.37
2023-10-29T00:38:57.497Z,4.18
2023-10-29T00:42:00.189Z,4.20
2023-10-29T00:45:02.556Z,5.20
2023-10-29T00:48:05.748Z,4.32
2023-10-29T00:51:08.912Z,4.22
2023-10-29T00:54:11.652Z,4.65
2023-10-29T00:57:14.138Z,3.58
2023-10-29T01:00:19.528Z,4.20
2023-10-29T01:03:23.067Z,4.18
2023-10-29T01:06:27.458Z,4.05
2023-10-29T01:09:31.502Z,3.90
2023-10-29T01:12:34.381Z,3.80
2023-10-29T01:15:36.818Z,3.90
2023-10-29T01:18:39.420Z,3.30
2023-10-29T01:21:41.954Z,3.58
2023-10-29T01:24:44.722Z,3.30
2023-10-29T01:27:47.065Z,3.65
2023-10-29T01:30:50.018Z,3.62
2023-10-29T01:33:52.266Z,4.55
2023-10-29T01:36:55.053Z,3.75
2023-10-29T01:39:58.289Z,4.40
2023-10-29T01:43:00.854Z,4.78
2023-10-29T01:46:03.378Z,4.53
2023-10-29T01:49:10.259Z,4.82
2023-10-29T01:52:12.571Z,5.30
2023-10-29T01:55:15.188Z,4.65
2023-10-29T01:58:17.541Z,5.07
2023-10-29T02:01:20.224Z,5.18
2023-10-29T02:04:27.595Z,6.57
2023-10-29T02:07:30.006Z,7.00
2023-10-29T02:10:32.685Z,6.37
2023-10-29T02:13:34.914Z,7.93
2023-10-29T02:16:37.558Z,8.00
2023-10-29T02:19:39.809Z,6.75
2023-10-29T02:22:42.418Z,6.82
2023-10-29T02:25:44.740Z,7.62
2023-10-29T02:28:47.295Z,7.50
2023-10-29T02:31:49.577Z,8.40
2023-10-29T02:34:52.170Z,7.90
2023-10-29T02:37:54.449Z,7.32
2023-10-29T02:40:57.033Z,7.93
2023-10-29T02:43:59.698Z,6.37
2023-10-29T02:47:02.389Z,6.78
2023-10-29T02:50:05.238Z,7.22
2023-10-29T02:53:07.761Z,6.87
2023-10-29T02:56:10.152Z,6.90
2023-10-29T02:59:12.801Z,7.25
2023-10-29T03:02:15.211Z,7.28
2023-10-29T03:05:18.978Z,7.05
2023-10-29T03:08:22.698Z,7.12
2023-10-29T03:11:25.431Z,7.68
2023-10-29T03:14:27.804Z,7.10
2023-10-29T03:17:30.407Z,8.13
2023-10-29T03:20:32.851Z,8.35
2023-10-29T03:23:35.542Z,7.15
2023-10-29T03:26:38.180Z,7.68
2023-10-29T03:29:40.889Z,8.27
2023-10-29T03:32:43.238Z,9.00
2023-10-29T03:35:46.315Z,7.70
2023-10-29T03:38:48.691Z,8.20
2023-10-29T03:41:51.473Z,8.32
2023-10-29T03:44:53.711Z,7.80
2023-10-29T03:47:56.486Z,8.27
2023-10-29T03:51:02.411Z,7.10
2023-10-29T03:54:05.345Z,7.22
2023-10-29T03:57:08.591Z,7.72
2023-10-29T04:00:12.022Z,8.30
2023-10-29T04:03:14.327Z,8.27
2023-10-29T04:06:17.134Z,8.10
2023-10-29T04:09:19.714Z,8.15
2023-10-29T04:12:22.550Z,8.15
2023-10-29T04:15:24.797Z,8.05
2023-10-29T04:18:32.603Z,7.78
2023-10-29T04:21:35.123Z,8.18
2023-10-29T04:24:37.748Z,9.38
2023-10-29T04:27:39.992Z,9.02
2023-10-29T04:30:42.828Z,9.93
2023-10-29T04:33:46.499Z,8.82
2023-10-29T04:36:52.756Z,8.63
2023-10-29T04:39:55.128Z,9.85
2023-10-29T04:43:00.049Z,9.18
2023-10-29T04:46:02.291Z,9.30
2023-10-29T04:49:05.029Z,9.38
2023-10-29T04:52:07.443Z,8.50
2023-10-29T04:55:10.178Z,8.35
2023-10-29T04:58:12.393Z,8.77
2023-10-29T05:01:19.079Z,8.80
2023-10-29T05:04:21.455Z,9.40
2023-10-29T05:07:24.165Z,8.13
2023-10-29T05:10:29.475Z,9.75
2023-10-29T05:13:31.976Z,10.23
2023-10-29T05:16:34.333Z,9.70
2023-10-29T05:19:36.898Z,8.93
2023-10-29T05:22:39.170Z,9.05
2023-10-29T05:25:42.503Z,10.00
2023-10-29T05:28:44.762Z,9.07
2023-10-29T05:31:47.308Z,9.75
2023-10-29T05:34:50.126Z,8.30
2023-10-29T05:37:52.890Z,8.63
2023-10-29T05:40:55.217Z,8.93
2023-10-29T05:43:57.751Z,8.18
2023-10-29T05:47:00.237Z,8.75
2023-10-29T05:50:05.317Z,7.47
2023-10-29T05:53:07.949Z,8.63
2023-10-29T05:56:10.504Z,7.72
2023-10-29T05:59:14.238Z,8.20
2023-10-29T06:02:17.311Z,9.65
2023-10-29T06:05:20.154Z,10.32
2023-10-29T06:08:23.111Z,10.88
2023-10-29T06:11:25.638Z,12.82
2023-10-29T06:14:27.946Z,11.30
2023-10-29T06:17:31.024Z,10.85
2023-10-29T06:20:34.170Z,11.60
2023-10-29T06:23:38.465Z,10.95
2023-10-29T06:26:42.086Z,12.82
2023-10-29T06:29:44.828Z,12.80
2023-10-29T06:32:47.510Z,12.93
2023-10-29T06:35:50.132Z,13.35
2023-10-29T06:38:53.119Z,12.45
2023-10-29T06:41:55.881Z,14.07
2023-10-29T06:44:58.430Z,12.27
2023-10-29T06:48:01.135Z,11.85
2023-10-29T06:51:04.362Z,10.88
2023-10-29T06:54:07.387Z,11.57
2023-10-29T06:57:09.765Z,10.57
2023-10-29T07:00:12.820Z,10.85
2023-10-29T07:03:15.704Z,11.63
2023-10-29T07:06:18.431Z,10.95
2023-10-29T07:09:20.683Z,11.77
2023-10-29T07:12:23.530Z,12.55
2023-10-29T07:15:26.474Z,11.38
2023-10-29T07:18:29.224Z,12.48
2023-10-29T07:21:31.704Z,11.20
2023-10-29T07:24:36.308Z,12.00
2023-10-29T07:27:39.078Z,11.25
2023-10-29T07:30:42.013Z,11.50
2023-10-29T07:33:44.324Z,12.07
2023-10-29T07:36:46.966Z,13.10
2023-10-29T07:39:49.263Z,12.82
2023-10-29T07:42:51.752Z,12.95
2023-10-29T07:45:54.016Z,12.63
2023-10-29T07:48:56.605Z,12.35
2023-10-29T07:51:58.873Z,12.02
2023-10-29T07:55:01.412Z,12.05
2023-10-29T07:58:03.976Z,12.00
2023-10-29T08:01:13.892Z,12.43
2023-10-29T08:04:16.532Z,11.38
2023-10-29T08:07:18.843Z,10.50
2023-10-29T08:10:21.400Z,10.45
2023-10-29T08:13:23.793Z,11.45
2023-10-29T08:16:26.486Z,9.55
2023-10-29T08:19:28.891Z,9.75
2023-10-29T08:22:31.426Z,8.32
2023-10-29T08:25:36.488Z,8.55
2023-10-29T08:28:39.079Z,7.60
2023-10-29T08:31:41.401Z,7.75
2023-10-29T08:34:44.093Z,8.20
2023-10-29T08:37:46.915Z,7.28
2023-10-29T08:40:49.488Z,8.77
2023-10-29T08:43:53.421Z,8.05
2023-10-29T08:46:56.031Z,7.37
2023-10-29T08:49:59.320Z,6.93
2023-10-29T08:53:01.884Z,6.60
2023-10-29T08:56:04.838Z,6.05
2023-10-29T08:59:07.389Z,6.10
2023-10-29T09:02:09.886Z,5.87
2023-10-29T09:05:12.885Z,5.90
2023-10-29T09:08:15.434Z,4.62
2023-10-29T09:11:18.620Z,4.32
2023-10-29T09:14:20.986Z,5.00
2023-10-29T09:17:23.590Z,3.97
2023-10-29T09:20:27.191Z,3.92
2023-10-29T09:23:30.499Z,5.30
2023-10-29T09:26:33.020Z,4.40
2023-10-29T09:29:37.625Z,3.58
2023-10-29T09:32:40.133Z,4.37
2023-10-29T09:35:43.468Z,3.75
2023-10-29T09:38:46.972Z,3.67
2023-10-29T09:41:53.147Z,3.35
2023-10-29T09:45:03.331Z,2.78
2023-10-29T09:48:09.209Z,2.55
2023-10-29T09:51:11.592Z,2.42
2023-10-29T09:54:16.249Z,2.60
2023-10-29T09:57:19.946Z,2.50
2023-10-29T10:00:22.762Z,2.53
2023-10-29T10:03:28.109Z,2.10
2023-10-29T10:06:31.816Z,2.20
2023-10-29T10:09:56.413Z,2.17
2023-10-29T10:12:58.610Z,2.22
2023-10-29T10:16:08.780Z,1.98
2023-10-29T10:19:14.593Z,2.22
2023-10-29T10:22:36.439Z,1.95
2023-10-29T10:25:39.206Z,1.65
2023-10-29T10:28:55.850Z,1.48
2023-10-29T10:32:05.951Z,1.75
2023-10-29T10:35:08.476Z,1.60
2023-10-29T10:38:12.018Z,1.25
2023-10-29T10:41:14.668Z,1.10
2023-10-29T10:44:23.223Z,1.10
2023-10-29T10:47:29.788Z,1.52
2023-10-29T10:50:33.470Z,1.00
2023-10-29T10:53:39.120Z,1.02
2023-10-29T10:56:42.768Z,1.10
2023-10-29T10:59:45.888Z,1.15
2023-10-29T11:02:49.675Z,0.73
2023-10-29T11:05:53.788Z,0.90
2023-10-29T11:08:56.744Z,0.77
2023-10-29T11:11:59.677Z,1.08
2023-10-29T11:15:21.937Z,0.70
2023-10-29T11:18:35.179Z,0.82
2023-10-29T11:21:39.623Z,0.70
2023-10-29T11:24:42.713Z,0.60
2023-10-29T11:27:48.946Z,0.62
2023-10-29T11:31:16.193Z,0.80
2023-10-29T11:34:18.500Z,0.88
2023-10-29T11:37:37.876Z,0.82
2023-10-29T11:40:40.158Z,0.82
2023-10-29T11:43:42.674Z,0.95
2023-10-29T11:46:59.919Z,0.80
2023-10-29T11:50:08.713Z,0.62
2023-10-29T11:53:25.844Z,0.60
2023-10-29T11:56:32.915Z,1.35
2023-10-29T11:59:35.184Z,0.80
2023-10-29T12:02:37.851Z,0.73
2023-10-29T12:05:40.489Z,1.27
2023-10-29T12:08:42.817Z,1.05
2023-10-29T12:11:46.484Z,0.98
2023-10-29T12:14:48.986Z,0.98
2023-10-29T12:17:52.114Z,1.00
2023-10-29T12:21:05.417Z,0.57
2023-10-29T12:24:09.479Z,0.82
2023-10-29T12:27:15.155Z,1.00
2023-10-29T12:30:43.942Z,0.82
2023-10-29T12:33:55.956Z,0.60
2023-10-29T12:36:58.472Z,0.70
2023-10-29T12:40:02.229Z,0.50
2023-10-29T12:43:05.024Z,0.60
2023-10-29T12:46:15.675Z,1.02
2023-10-29T12:49:34.736Z,0.80
2023-10-29T12:52:44.199Z,0.80
2023-10-29T12:55:47.434Z,0.70
2023-10-29T12:58:49.620Z,0.55
2023-10-29T13:01:54.191Z,0.75
2023-10-29T13:04:56.509Z,0.75
2023-10-29T13:07:59.063Z,0.93
2023-10-29T13:11:03.967Z,0.90
2023-10-29T13:14:09.311Z,0.70
2023-10-29T13:17:12.210Z,0.82
2023-10-29T13:20:15.232Z,1.02
2023-10-29T13:23:17.471Z,0.50
2023-10-29T13:26:23.143Z,0.75
2023-10-29T13:29:25.952Z,0.68
2023-10-29T13:32:28.539Z,0.90
2023-10-29T13:35:31.865Z,0.70
2023-10-29T13:38:35.268Z,0.80
2023-10-29T13:41:41.293Z,0.52
2023-10-29T13:44:44.711Z,1.12
2023-10-29T13:47:47.155Z,0.65
2023-10-29T13:50:49.872Z,0.80
2023-10-29T13:53:52.197Z,0.57
2023-10-29T13:56:57.080Z,0.80
2023-10-29T13:59:59.492Z,0.85
2023-10-29T14:03:02.351Z,0.90
2023-10-29T14:06:05.816Z,0.55
2023-10-29T14:09:09.626Z,0.88
2023-10-29T14:12:12.253Z,0.60
2023-10-29T14:15:16.099Z,0.68
2023-10-29T14:18:19.442Z,0.90
2023-10-29T14:21:22.083Z,1.20
2023-10-29T14:24:24.752Z,0.90
2023-10-29T14:27:27.054Z,1.23
2023-10-29T14:30:29.760Z,0.50
2023-10-29T14:33:32.307Z,1.48
2023-10-29T14:36:35.406Z,0.68
2023-10-29T14:39:37.615Z,0.80
2023-10-29T14:42:40.119Z,1.10
2023-10-29T14:45:45.978Z,1.17
2023-10-29T14:48:48.469Z,1.40
2023-10-29T14:51:50.876Z,0.80
2023-10-29T14:54:53.478Z,1.27
2023-10-29T14:57:56.223Z,1.00
2023-10-29T15:00:59.533Z,0.90
2023-10-29T15:04:02.223Z,0.90
2023-10-29T15:07:04.989Z,1.08
2023-10-29T15:10:07.583Z,1.00
2023-10-29T15:13:10.039Z,1.10
2023-10-29T15:16:12.412Z,0.95
2023-10-29T15:19:30.016Z,0.85
2023-10-29T15:22:37.522Z,0.80
2023-10-29T15:25:44.001Z,1.05
2023-10-29T15:28:47.995Z,1.30
2023-10-29T15:31:50.502Z,0.98
2023-10-29T15:34:52.840Z,1.00
2023-10-29T15:37:55.488Z,1.33
2023-10-29T15:40:57.880Z,1.10
2023-10-29T15:44:00.387Z,1.80
2023-10-29T15:47:02.568Z,1.77
2023-10-29T15:50:06.635Z,1.40
2023-10-29T15:53:09.036Z,1.30
2023-10-29T15:56:11.690Z,2.20
2023-10-29T15:59:13.897Z,1.37
2023-10-29T16:02:16.353Z,1.30
2023-10-29T16:05:20.587Z,1.52
2023-10-29T16:08:22.900Z,1.62
2023-10-29T16:11:27.682Z,2.00
2023-10-29T16:14:30.165Z,1.92
2023-10-29T16:17:32.764Z,2.05
2023-10-29T16:20:35.087Z,2.40
2023-10-29T16:23:38.082Z,2.40
2023-10-29T16:26:40.431Z,2.30
2023-10-29T16:29:43.233Z,2.55
2023-10-29T16:32:45.537Z,2.65
2023-10-29T16:35:49.036Z,2.40
2023-10-29T16:38:51.279Z,2.10
2023-10-29T16:41:59.570Z,2.12
2023-10-29T16:45:02.071Z,2.10
2023-10-29T16:48:05.712Z,3.40
2023-10-29T16:51:08.700Z,2.90
2023-10-29T16:54:11.361Z,2.75
2023-10-29T16:57:13.983Z,2.55
2023-10-29T17:00:16.955Z,2.72
2023-10-29T17:03:19.356Z,3.08
2023-10-29T17:06:22.025Z,3.12
2023-10-29T17:09:28.442Z,3.20
2023-10-29T17:12:31.050Z,3.33
2023-10-29T17:15:33.359Z,3.20
2023-10-29T17:18:36.407Z,3.58
2023-10-29T17:21:38.776Z,3.22
2023-10-29T17:24:41.457Z,3.65
2023-10-29T17:27:43.662Z,3.97
2023-10-29T17:30:46.212Z,4.65
2023-10-29T17:33:48.675Z,4.20
2023-10-29T17:36:51.332Z,3.62
2023-10-29T17:39:53.705Z,2.60
2023-10-29T17:42:59.898Z,2.40
2023-10-29T17:46:02.262Z,2.35
2023-10-29T17:49:04.958Z,2.33
2023-10-29T17:52:07.234Z,2.40
2023-10-29T17:55:09.783Z,1.87
2023-10-29T17:58:12.022Z,2.10
2023-10-29T18:01:15.778Z,2.03
2023-10-29T18:04:18.995Z,2.17
2023-10-29T18:07:21.276Z,2.65
2023-10-29T18:10:24.471Z,3.67
2023-10-29T18:13:26.657Z,3.75
2023-10-29T18:16:29.401Z,2.78
2023-10-29T18:19:31.808Z,3.75
2023-10-29T18:22:34.365Z,3.10
2023-10-29T18:25:36.663Z,2.67
2023-10-29T18:28:39.242Z,2.70
2023-10-29T18:31:41.888Z,2.83
2023-10-29T18:34:44.800Z,3.05
2023-10-29T18:37:50.700Z,2.50
2023-10-29T18:40:56.178Z,2.42
2023-10-29T18:44:01.240Z,3.45
2023-10-29T18:47:04.005Z,3.05
2023-10-29T18:50:07.628Z,3.37
2023-10-29T18:53:10.310Z,3.05
2023-10-29T18:56:12.553Z,3.42
2023-10-29T18:59:15.305Z,3.87
2023-10-29T19:02:17.595Z,3.87
2023-10-29T19:05:20.375Z,4.95
2023-10-29T19:08:22.684Z,4.15
2023-10-29T19:11:26.548Z,4.20
2023-10-29T19:14:32.476Z,4.07
2023-10-29T19:17:37.058Z,4.05
2023-10-29T19:20:42.754Z,4.55
2023-10-29T19:23:46.090Z,4.30
2023-10-29T19:26:48.345Z,3.90
2023-10-29T19:29:54.255Z,4.05
2023-10-29T19:32:56.547Z,3.78
2023-10-29T19:35:59.216Z,3.65
2023-10-29T19:39:01.578Z,3.78
2023-10-29T19:42:04.570Z,4.32
2023-10-29T19:45:07.543Z,4.32
2023-10-29T19:48:10.496Z,4.68
2023-10-29T19:51:12.816Z,3.28
2023-10-29T19:54:16.069Z,3.72
2023-10-29T19:57:18.427Z,3.67
2023-10-29T20:00:21.547Z,4.37
2023-10-29T20:03:24.150Z,3.90
2023-10-29T20:06:27.413Z,4.12
2023-10-29T20:09:30.421Z,3.42
2023-10-29T20:12:32.750Z,3.80
2023-10-29T20:15:35.732Z,3.92
2023-10-29T20:18:38.213Z,3.53
2023-10-29T20:21:40.910Z,3.10
2023-10-29T20:24:43.363Z,3.33
2023-10-29T20:27:49.282Z,3.92
2023-10-29T20:30:51.584Z,3.80
2023-10-29T20:33:54.362Z,3.80
2023-10-29T20:36:56.674Z,4.15
2023-10-29T20:39:59.578Z,3.55
2023-10-29T20:43:02.912Z,3.67
2023-10-29T20:46:05.754Z,3.55
2023-10-29T20:49:08.333Z,3.05
2023-10-29T20:52:11.153Z,3.55
2023-10-29T20:55:13.358Z,3.85
2023-10-29T20:58:15.989Z,3.20
2023-10-29T21:01:18.473Z,3.50
2023-10-29T21:04:21.239Z,3.50
2023-10-29T21:07:23.541Z,4.15
2023-10-29T21:10:28.423Z,3.78
2023-10-29T21:13:30.996Z,3.25
2023-10-29T21:16:34.268Z,3.72
2023-10-29T21:19:36.560Z,3.17
2023-10-29T21:22:39.129Z,3.08
2023-10-29T21:25:41.393Z,3.60
2023-10-29T21:28:44.330Z,3.28
2023-10-29T21:31:47.563Z,3.53
2023-10-29T21:34:50.220Z,3.17
2023-10-29T21:37:52.490Z,3.90
2023-10-29T21:40:55.146Z,3.40
2023-10-29T21:43:58.918Z,3.87
2023-10-29T21:47:01.835Z,3.87
2023-10-29T21:50:04.530Z,3.47
2023-10-29T21:53:08.027Z,3.95
2023-10-29T21:56:10.588Z,4.07
2023-10-29T21:59:13.151Z,3.95
2023-10-29T22:02:15.368Z,4.25
2023-10-29T22:05:17.864Z,4.03
2023-10-29T22:08:20.129Z,3.72
2023-10-29T22:11:23.190Z,4.18
2023-10-29T22:14:25.393Z,3.85
2023-10-29T22:17:28.093Z,3.78
2023-10-29T22:20:33.198Z,3.85
2023-10-29T22:23:36.396Z,3.62
2023-10-29T22:26:38.940Z,3.03
2023-10-29T22:29:41.508Z,3.85
2023-10-29T22:32:43.776Z,3.22
2023-10-29T22:35:46.358Z,3.25
2023-10-29T22:38:48.825Z,2.95
2023-10-29T22:41:51.496Z,2.80
2023-10-29T22:44:53.712Z,3.10
2023-10-29T22:47:57.719Z,3.00
2023-10-29T22:51:03.613Z,2.80
2023-10-29T22:54:06.648Z,2.87
2023-10-29T22:57:09.011Z,3.10
2023-10-29T23:00:16.585Z,2.70
2023-10-29T23:03:19.601Z,2.80
2023-10-29T23:06:22.848Z,2.47
2023-10-29T23:09:26.356Z,2.22
2023-10-29T23:12:28.895Z,2.92
2023-10-29T23:15:31.266Z,2.70
2023-10-29T23:18:33.993Z,2.75
2023-10-29T23:21:36.301Z,2.55
2023-10-29T23:24:38.972Z,2.85
2023-10-29T23:27:41.490Z,3.40
2023-10-29T23:30:44.991Z,2.20
2023-10-29T23:33:49.662Z,2.55
2023-10-29T23:36:52.942Z,2.97
2023-10-29T23:39:55.373Z,2.62
2023-10-29T23:42:59.571Z,3.10
2023-10-29T23:46:01.918Z,2.10
2023-10-29T23:49:06.657Z,2.33
2023-10-29T23:52:08.879Z,2.60
2023-10-29T23:55:12.635Z,2.42
2023-10-29T23:58:15.051Z,2.03
